Aeroporto :
LOGIN :

Iscrizione | Disclaimer

   EN    FR    IT 

 










Sommario :    VFR   VFR Marginale   IFR   IFR Intensivo   IFR Molto Intensivo
Visibilità : 
Base nubi : 
>= 8 km
>= 3000ft
5 / 8 km
1000 / 3000 ft
1500m / 5 km
500 / 1000 ft
800 / 1500m
200 / 500 ft
< 800m
< 200 ft
Simboli :   Temporali  Nebbia  Neve Forte  Precipitazioni Forti  Vento > 20 kt
SIGMETs :   Varie  Temporali  Ghiacco  Turbolenza  Onda orograficha  Ceneri Vulcaniche






- Altitudine del aeroporto : 202 ft
- Codice IATA : LGW


EGKK - London Gatwick

ULTIMO METAR :
  • 071820Z 21007KT 9999 BKN023 10/07 Q1013

METARs OBSOLETI :
  • 071750Z 21007KT 170V240 9999 BKN024 10/06 Q1013
  • 071720Z 23009KT 9999 BKN024 10/06 Q1013
  • 071650Z 22008KT 9999 BKN023 10/07 Q1013
  • 071620Z 23008KT 9999 BKN025 10/07 Q1013
  • 071550Z 23008KT 9999 BKN028 10/06 Q1013

TAF TAF EGKK
Valido dal 07 a 18 ore il 09 a 00 ore UTC


071658Z 0718/0824 23010KT 9999 SCT030
BECMG 0721/0724 22020G30KT
TEMPO 0721/0802 BKN012
BECMG 0802/0804 4000 RA BKN012
PROB30
TEMPO 0802/0806 +RA BKN008
BECMG 0805/0807 25015G25KT 9999 NSW SCT025
PROB30
TEMPO 0812/0824 26020G35KT 4000 +SHRA



MetMap, La meteo Aeronautica in un colpo d'occhio ! - Copyright ORBIFLY Dicembre 2007 - Disclaimer

ORBIFLY MET'MAP TEAM :

Programmazione e sviluppo : Alexandra Zaïnal
Concezione : Baudouin d'Aumeries
Aiuto per la programmazione : Marc-Olivier Méhu
Supporto tecnico e logistico : Manuel Goepfert
Aiuto per la traduzione : Arnaldo La Scala

Contatto : metmap@orbifly.com




FONTI E CREDITI :

   NOAA